Time,TemperatureF,DewpointF,PressureIn,WindDirection,WindDirectionDegrees,WindSpeedMPH,WindSpeedGustMPH,Humidity,HourlyPrecipIn,Conditions,Clouds,dailyrainin,SolarRadiationWatts/m^2,SoftwareType,DateUTC
2013-05-13 00:01:00,55.0,53.0,-100.00,SW,226,3.0,7.0,92,0.00,,,0.00,0.000000,,2013-05-13 07:01:00,
2013-05-13 00:11:00,55.0,53.0,-100.00,SW,226,3.0,7.0,92,0.00,,,0.00,0.000000,,2013-05-13 07:11:00,
2013-05-13 00:42:00,54.0,53.0,-100.00,WSW,241,3.0,5.0,95,0.00,,,-99.99,0.000000,,2013-05-13 07:42:00,
2013-05-13 00:52:00,54.0,53.0,-100.00,WSW,241,3.0,5.0,95,0.00,,,-99.99,0.000000,,2013-05-13 07:52:00,
2013-05-13 01:02:00,54.0,53.0,-100.00,WSW,241,3.0,5.0,95,0.00,,,-99.99,0.000000,,2013-05-13 08:02:00,
2013-05-13 01:11:00,54.0,53.0,-100.00,WSW,241,3.0,5.0,95,0.00,,,-99.99,0.000000,,2013-05-13 08:11:00,
2013-05-13 01:42:00,54.0,54.0,-100.00,SW,228,3.0,6.0,100,0.00,,,0.00,0.000000,,2013-05-13 08:42:00,
2013-05-13 01:52:00,54.0,54.0,-100.00,SW,228,3.0,6.0,100,0.00,,,0.00,0.000000,,2013-05-13 08:52:00,
2013-05-13 02:01:00,54.0,54.0,-100.00,SW,228,3.0,6.0,100,0.00,,,0.00,0.000000,,2013-05-13 09:01:00,
2013-05-13 02:11:00,54.0,54.0,-100.00,SW,228,3.0,6.0,100,0.00,,,0.00,0.000000,,2013-05-13 09:11:00,
2013-05-13 02:33:00,54.0,54.0,-100.00,SW,222,3.0,6.0,100,0.00,,,0.00,0.000000,,2013-05-13 09:33:00,
2013-05-13 02:42:00,54.0,54.0,-100.00,SW,222,3.0,6.0,100,0.00,,,0.00,0.000000,,2013-05-13 09:42:00,
2013-05-13 02:52:00,54.0,54.0,-100.00,SW,222,3.0,6.0,100,0.00,,,0.00,0.000000,,2013-05-13 09:52:00,
2013-05-13 03:02:00,54.0,54.0,-100.00,SW,222,3.0,6.0,100,0.00,,,0.00,0.000000,,2013-05-13 10:02:00,
2013-05-13 03:12:00,54.0,54.0,-100.00,SW,222,3.0,6.0,100,0.00,,,0.00,0.000000,,2013-05-13 10:12:00,
2013-05-13 03:33:00,54.0,54.0,-100.00,South,191,3.0,6.0,100,0.00,,,-99.99,0.000000,,2013-05-13 10:33:00,
2013-05-13 03:43:00,54.0,54.0,-100.00,South,191,3.0,6.0,100,0.00,,,-99.99,0.000000,,2013-05-13 10:43:00,
2013-05-13 03:52:00,54.0,54.0,-100.00,South,191,3.0,6.0,100,0.00,,,-99.99,0.000000,,2013-05-13 10:52:00,
2013-05-13 04:02:00,54.0,54.0,-100.00,South,191,3.0,6.0,100,0.00,,,-99.99,0.000000,,2013-05-13 11:02:00,
2013-05-13 04:12:00,54.0,54.0,-100.00,South,191,3.0,6.0,100,0.00,,,-99.99,0.000000,,2013-05-13 11:12:00,
2013-05-13 04:32:00,53.0,53.0,-100.00,SSW,206,3.0,6.0,100,0.00,,,0.00,0.000000,,2013-05-13 11:32:00,
2013-05-13 04:42:00,53.0,53.0,-100.00,SSW,206,3.0,6.0,100,0.00,,,0.00,0.000000,,2013-05-13 11:42:00,
2013-05-13 04:52:00,53.0,53.0,-100.00,SSW,206,3.0,6.0,100,0.00,,,0.00,0.000000,,2013-05-13 11:52:00,
2013-05-13 05:01:00,53.0,53.0,-100.00,SSW,206,3.0,6.0,100,0.00,,,0.00,0.000000,,2013-05-13 12:01:00,
2013-05-13 05:11:00,53.0,53.0,-100.00,SSW,206,3.0,6.0,100,0.00,,,0.00,0.000000,,2013-05-13 12:11:00,
2013-05-13 05:42:00,53.0,53.0,-100.00,SSW,206,3.0,6.0,100,0.00,,,-99.99,0.000000,,2013-05-13 12:42:00,
2013-05-13 05:52:00,53.0,53.0,-100.00,SSW,206,3.0,6.0,100,0.00,,,-99.99,0.000000,,2013-05-13 12:52:00,
2013-05-13 06:01:00,53.0,53.0,-100.00,SSW,206,3.0,6.0,100,0.00,,,-99.99,0.000000,,2013-05-13 13:01:00,
2013-05-13 06:11:00,53.0,53.0,-100.00,SSW,206,3.0,6.0,100,0.00,,,-99.99,0.000000,,2013-05-13 13:11:00,
2013-05-13 06:32:00,52.0,52.0,-100.00,SW,221,3.0,6.0,100,0.01,,,0.01,1.000000,,2013-05-13 13:32:00,
2013-05-13 06:42:00,52.0,52.0,-100.00,SW,221,3.0,6.0,100,0.01,,,0.01,1.000000,,2013-05-13 13:42:00,
2013-05-13 06:52:00,52.0,52.0,-100.00,SW,221,3.0,6.0,100,0.01,,,0.01,1.000000,,2013-05-13 13:52:00,
2013-05-13 07:01:00,52.0,52.0,-100.00,SW,221,3.0,6.0,100,0.01,,,0.01,1.000000,,2013-05-13 14:01:00,
2013-05-13 07:11:00,52.0,52.0,-100.00,SW,221,3.0,6.0,100,0.01,,,0.01,1.000000,,2013-05-13 14:11:00,
2013-05-13 07:42:00,52.0,52.0,-100.00,SW,226,3.0,5.0,100,0.00,,,0.01,26.000000,,2013-05-13 14:42:00,
2013-05-13 07:52:00,52.0,52.0,-100.00,SW,226,3.0,5.0,100,0.00,,,0.01,26.000000,,2013-05-13 14:52:00,
2013-05-13 08:01:00,52.0,52.0,-100.00,SW,226,3.0,5.0,100,0.00,,,0.01,26.000000,,2013-05-13 15:01:00,
2013-05-13 08:11:00,52.0,52.0,-100.00,SW,226,3.0,5.0,100,0.00,,,0.01,26.000000,,2013-05-13 15:11:00,
2013-05-13 08:42:00,51.0,51.0,-100.00,SSW,209,3.0,6.0,100,0.01,,,0.02,40.000000,,2013-05-13 15:42:00,
2013-05-13 08:53:00,51.0,51.0,-100.00,SSW,209,3.0,6.0,100,0.01,,,0.02,40.000000,,2013-05-13 15:53:00,
2013-05-13 09:03:00,51.0,51.0,-100.00,SSW,209,3.0,6.0,100,0.01,,,0.02,40.000000,,2013-05-13 16:03:00,
2013-05-13 09:11:00,51.0,51.0,-100.00,SSW,209,3.0,6.0,100,0.01,,,0.02,40.000000,,2013-05-13 16:11:00,
2013-05-13 09:33:00,52.0,52.0,-100.00,SW,217,4.0,6.0,100,0.01,,,-99.99,84.000000,,2013-05-13 16:33:00,
2013-05-13 09:43:00,52.0,52.0,-100.00,SW,217,4.0,6.0,100,0.01,,,-99.99,84.000000,,2013-05-13 16:43:00,
2013-05-13 09:52:00,52.0,52.0,-100.00,SW,217,4.0,6.0,100,0.01,,,-99.99,84.000000,,2013-05-13 16:52:00,
2013-05-13 10:02:00,52.0,52.0,-100.00,SW,217,4.0,6.0,100,0.01,,,-99.99,84.000000,,2013-05-13 17:02:00,
2013-05-13 10:12:00,52.0,52.0,-100.00,SW,217,4.0,6.0,100,0.01,,,-99.99,84.000000,,2013-05-13 17:12:00,
2013-05-13 10:32:00,52.0,52.0,-100.00,SW,215,4.0,7.0,100,0.00,,,0.03,126.000000,,2013-05-13 17:32:00,
2013-05-13 10:42:00,52.0,52.0,-100.00,SW,215,4.0,7.0,100,0.00,,,0.03,126.000000,,2013-05-13 17:42:00,
2013-05-13 10:54:00,52.0,52.0,-100.00,SW,215,4.0,7.0,100,0.00,,,0.03,126.000000,,2013-05-13 17:54:00,
2013-05-13 11:03:00,52.0,52.0,-100.00,SW,215,4.0,7.0,100,0.00,,,0.03,126.000000,,2013-05-13 18:03:00,
2013-05-13 11:12:00,52.0,52.0,-100.00,SW,215,4.0,7.0,100,0.00,,,0.03,126.000000,,2013-05-13 18:12:00,
2013-05-13 12:32:00,53.0,53.0,-100.00,WSW,245,5.0,9.0,100,-99.99,,,0.03,390.000000,,2013-05-13 19:32:00,
2013-05-13 12:44:00,53.0,53.0,-100.00,WSW,245,5.0,9.0,100,-99.99,,,0.03,390.000000,,2013-05-13 19:44:00,
2013-05-13 12:53:00,53.0,53.0,-100.00,WSW,245,5.0,9.0,100,-99.99,,,0.03,390.000000,,2013-05-13 19:53:00,
2013-05-13 13:01:00,53.0,53.0,-100.00,WSW,245,5.0,9.0,100,-99.99,,,0.03,390.000000,,2013-05-13 20:01:00,
2013-05-13 13:11:00,53.0,53.0,-100.00,WSW,245,5.0,9.0,100,-99.99,,,0.03,390.000000,,2013-05-13 20:11:00,
2013-05-13 13:13:00,53.0,52.0,-100.00,SSW,213,4.0,9.0,98,0.00,,,0.03,284.000000,,2013-05-13 20:13:00,
2013-05-13 13:34:00,53.0,52.0,-100.00,SSW,213,4.0,9.0,98,0.00,,,0.03,284.000000,,2013-05-13 20:34:00,
2013-05-13 13:44:00,53.0,52.0,-100.00,SSW,213,4.0,9.0,98,0.00,,,0.03,284.000000,,2013-05-13 20:44:00,
2013-05-13 13:53:00,53.0,52.0,-100.00,SSW,213,4.0,9.0,98,0.00,,,0.03,284.000000,,2013-05-13 20:53:00,
2013-05-13 14:02:00,53.0,52.0,-100.00,SSW,213,4.0,9.0,98,0.00,,,0.03,284.000000,,2013-05-13 21:02:00,
2013-05-13 14:43:00,54.0,53.0,-100.00,SSW,207,5.0,9.0,97,0.01,,,0.04,268.000000,,2013-05-13 21:43:00,
2013-05-13 14:53:00,54.0,53.0,-100.00,SSW,207,5.0,9.0,97,0.01,,,0.04,268.000000,,2013-05-13 21:53:00,
2013-05-13 15:02:00,54.0,53.0,-100.00,SSW,207,5.0,9.0,97,0.01,,,0.04,268.000000,,2013-05-13 22:02:00,
2013-05-13 15:12:00,54.0,53.0,-100.00,SSW,207,5.0,9.0,97,0.01,,,0.04,268.000000,,2013-05-13 22:12:00,
2013-05-13 15:43:00,56.0,54.0,-100.00,WSW,253,4.0,8.0,92,0.00,,,0.04,392.000000,,2013-05-13 22:43:00,
2013-05-13 15:52:00,56.0,54.0,-100.00,WSW,253,4.0,8.0,92,0.00,,,0.04,392.000000,,2013-05-13 22:52:00,
2013-05-13 16:01:00,56.0,54.0,-100.00,WSW,253,4.0,8.0,92,0.00,,,0.04,392.000000,,2013-05-13 23:01:00,
2013-05-13 16:12:00,56.0,54.0,-100.00,WSW,253,4.0,8.0,92,0.00,,,0.04,392.000000,,2013-05-13 23:12:00,
2013-05-13 16:42:00,59.0,53.0,-100.00,SW,230,3.0,8.0,81,0.00,,,0.04,437.000000,,2013-05-13 23:42:00,
2013-05-13 16:54:00,59.0,53.0,-100.00,SW,230,3.0,8.0,81,0.00,,,0.04,437.000000,,2013-05-13 23:54:00,
2013-05-13 17:02:00,59.0,53.0,-100.00,SW,230,3.0,8.0,81,0.00,,,0.04,437.000000,,2013-05-14 00:02:00,
2013-05-13 17:12:00,59.0,53.0,-100.00,SW,230,3.0,8.0,81,0.00,,,0.04,437.000000,,2013-05-14 00:12:00,
2013-05-13 18:32:00,55.0,51.0,-100.00,West,263,3.0,7.0,87,-99.99,,,0.04,319.000000,,2013-05-14 01:32:00,
2013-05-13 18:43:00,55.0,51.0,-100.00,West,263,3.0,7.0,87,-99.99,,,0.04,319.000000,,2013-05-14 01:43:00,
2013-05-13 18:53:00,55.0,51.0,-100.00,West,263,3.0,7.0,87,-99.99,,,0.04,319.000000,,2013-05-14 01:53:00,
2013-05-13 19:02:00,55.0,51.0,-100.00,West,263,3.0,7.0,87,-99.99,,,0.04,319.000000,,2013-05-14 02:02:00,
2013-05-13 19:11:00,55.0,51.0,-100.00,West,263,3.0,7.0,87,-99.99,,,0.04,319.000000,,2013-05-14 02:11:00,
2013-05-13 19:32:00,54.0,51.0,-100.00,WNW,290,2.0,5.0,89,0.00,,,0.04,125.000000,,2013-05-14 02:32:00,
2013-05-13 19:42:00,54.0,51.0,-100.00,WNW,290,2.0,5.0,89,0.00,,,0.04,125.000000,,2013-05-14 02:42:00,
2013-05-13 19:52:00,54.0,51.0,-100.00,WNW,290,2.0,5.0,89,0.00,,,0.04,125.000000,,2013-05-14 02:52:00,
2013-05-13 20:01:00,54.0,51.0,-100.00,WNW,290,2.0,5.0,89,0.00,,,0.04,125.000000,,2013-05-14 03:01:00,
2013-05-13 20:11:00,54.0,51.0,-100.00,WNW,290,2.0,5.0,89,0.00,,,0.04,125.000000,,2013-05-14 03:11:00,
2013-05-13 20:33:00,52.0,51.0,-100.00,WNW,297,2.0,5.0,95,0.00,,,0.04,55.000000,,2013-05-14 03:33:00,
2013-05-13 20:42:00,52.0,51.0,-100.00,WNW,297,2.0,5.0,95,0.00,,,0.04,55.000000,,2013-05-14 03:42:00,
2013-05-13 20:53:00,52.0,51.0,-100.00,WNW,297,2.0,5.0,95,0.00,,,0.04,55.000000,,2013-05-14 03:53:00,
2013-05-13 21:02:00,52.0,51.0,-100.00,WNW,297,2.0,5.0,95,0.00,,,0.04,55.000000,,2013-05-14 04:02:00,
2013-05-13 21:12:00,52.0,51.0,-100.00,WNW,297,2.0,5.0,95,0.00,,,0.04,55.000000,,2013-05-14 04:12:00,
2013-05-13 21:32:00,50.0,50.0,-100.00,WNW,285,2.0,3.0,99,0.00,,,0.04,2.000000,,2013-05-14 04:32:00,
2013-05-13 21:43:00,50.0,50.0,-100.00,WNW,285,2.0,3.0,99,0.00,,,0.04,2.000000,,2013-05-14 04:43:00,
2013-05-13 21:53:00,50.0,50.0,-100.00,WNW,285,2.0,3.0,99,0.00,,,0.04,2.000000,,2013-05-14 04:53:00,
2013-05-13 22:01:00,50.0,50.0,-100.00,WNW,285,2.0,3.0,99,0.00,,,0.04,2.000000,,2013-05-14 05:01:00,
2013-05-13 22:12:00,50.0,50.0,-100.00,WNW,285,2.0,3.0,99,0.00,,,0.04,2.000000,,2013-05-14 05:12:00,
2013-05-13 22:32:00,48.0,48.0,-100.00,NNE,20,2.0,2.0,100,0.00,,,0.04,0.000000,,2013-05-14 05:32:00,
2013-05-13 22:42:00,48.0,48.0,-100.00,NNE,20,2.0,2.0,100,0.00,,,0.04,0.000000,,2013-05-14 05:42:00,
2013-05-13 22:52:00,48.0,48.0,-100.00,NNE,20,2.0,2.0,100,0.00,,,0.04,0.000000,,2013-05-14 05:52:00,
2013-05-13 23:01:00,48.0,48.0,-100.00,NNE,20,2.0,2.0,100,0.00,,,0.04,0.000000,,2013-05-14 06:01:00,
2013-05-13 23:12:00,48.0,48.0,-100.00,NNE,20,2.0,2.0,100,0.00,,,0.04,0.000000,,2013-05-14 06:12:00,
2013-05-13 23:32:00,48.0,48.0,-100.00,NE,48,1.0,2.0,100,0.00,,,0.04,0.000000,,2013-05-14 06:32:00,
2013-05-13 23:42:00,48.0,48.0,-100.00,NE,48,1.0,2.0,100,0.00,,,0.04,0.000000,,2013-05-14 06:42:00,
2013-05-13 23:52:00,48.0,48.0,-100.00,NE,48,1.0,2.0,100,0.00,,,0.04,0.000000,,2013-05-14 06:52:00,